createdAt,value
2019-02-05T00:01:42.577Z,40.90
2019-02-05T00:04:12.431Z,36.73
2019-02-05T00:06:42.034Z,44.43
2019-02-05T00:09:13.210Z,37.67
2019-02-05T00:11:43.105Z,39.83
2019-02-05T00:14:12.681Z,31.23
2019-02-05T00:16:42.622Z,38.63
2019-02-05T00:19:12.185Z,34.00
2019-02-05T00:21:41.772Z,35.67
2019-02-05T00:24:11.376Z,33.87
2019-02-05T00:26:40.885Z,57.20
2019-02-05T00:29:10.848Z,38.67
2019-02-05T00:31:40.425Z,45.10
2019-02-05T00:34:09.943Z,32.63
2019-02-05T00:36:39.509Z,36.30
2019-02-05T00:39:09.761Z,35.93
2019-02-05T00:41:39.368Z,36.17
2019-02-05T00:44:09.004Z,35.50
2019-02-05T00:46:38.534Z,34.77
2019-02-05T00:49:08.203Z,39.60
2019-02-05T00:51:37.821Z,35.70
2019-02-05T00:54:07.420Z,36.30
2019-02-05T00:56:36.938Z,41.60
2019-02-05T00:59:06.909Z,39.27
2019-02-05T01:01:36.506Z,37.33
2019-02-05T01:04:06.419Z,34.73
2019-02-05T01:06:35.954Z,35.47
2019-02-05T01:09:08.084Z,36.50
2019-02-05T01:11:37.683Z,39.90
2019-02-05T01:14:07.725Z,36.93
2019-02-05T01:16:37.311Z,37.87
2019-02-05T01:19:06.841Z,34.60
2019-02-05T01:21:36.503Z,35.93
2019-02-05T01:24:06.315Z,35.80
2019-02-05T01:26:36.002Z,38.03
2019-02-05T01:29:05.666Z,38.87
2019-02-05T01:31:35.186Z,33.33
2019-02-05T01:34:04.852Z,40.23
2019-02-05T01:36:34.454Z,35.33
2019-02-05T01:39:05.538Z,35.30
2019-02-05T01:41:35.352Z,37.90
2019-02-05T01:44:05.124Z,38.23
2019-02-05T01:46:34.738Z,38.77
2019-02-05T01:49:04.388Z,39.20
2019-02-05T01:51:33.981Z,35.83
2019-02-05T01:54:03.522Z,44.70
2019-02-05T01:56:40.332Z,40.33
2019-02-05T01:59:06.278Z,34.50
2019-02-05T02:01:36.071Z,40.33
2019-02-05T02:04:05.883Z,35.80
2019-02-05T02:06:35.329Z,40.03
2019-02-05T02:09:05.685Z,36.23
2019-02-05T02:11:35.124Z,33.87
2019-02-05T02:14:04.878Z,52.73
2019-02-05T02:16:34.317Z,34.03
2019-02-05T02:19:03.725Z,30.00
2019-02-05T02:21:33.156Z,45.97
2019-02-05T02:24:02.799Z,35.00
2019-02-05T02:26:32.224Z,36.40
2019-02-05T02:29:01.702Z,45.43
2019-02-05T02:31:31.156Z,32.87
2019-02-05T02:34:00.542Z,30.13
2019-02-05T02:36:29.949Z,33.07
2019-02-05T02:38:59.381Z,36.70
2019-02-05T02:41:28.742Z,39.27
2019-02-05T02:43:58.170Z,35.10
2019-02-05T02:46:27.545Z,32.23
2019-02-05T02:48:56.974Z,34.73
2019-02-05T02:51:26.405Z,35.97
2019-02-05T02:53:56.166Z,33.93
2019-02-05T02:56:25.552Z,34.83
2019-02-05T02:58:54.977Z,34.43
2019-02-05T03:01:24.416Z,33.90
2019-02-05T03:03:53.810Z,35.60
2019-02-05T03:06:23.225Z,45.83
2019-02-05T03:08:52.601Z,38.20
2019-02-05T03:11:22.026Z,45.73
2019-02-05T03:13:51.405Z,40.90
2019-02-05T03:16:20.853Z,48.77
2019-02-05T03:18:50.250Z,33.10
2019-02-05T03:21:19.678Z,35.27
2019-02-05T03:23:49.078Z,33.03
2019-02-05T03:26:18.398Z,43.87
2019-02-05T03:28:47.755Z,39.27
2019-02-05T03:31:17.420Z,45.73
2019-02-05T03:33:46.849Z,47.67
2019-02-05T03:36:16.290Z,35.57
2019-02-05T03:38:45.705Z,35.00
2019-02-05T03:41:15.129Z,38.37
2019-02-05T03:43:44.853Z,35.53
2019-02-05T03:46:15.529Z,34.97
2019-02-05T03:48:46.819Z,37.53
2019-02-05T03:51:58.993Z,40.80
2019-02-05T03:54:57.167Z,37.70
2019-02-05T03:58:29.103Z,39.30
2019-02-05T04:01:20.833Z,41.10
2019-02-05T04:04:20.864Z,36.23
2019-02-05T04:07:02.677Z,40.77
2019-02-05T04:10:40.937Z,40.83
2019-02-05T04:13:33.726Z,43.17
2019-02-05T04:16:46.901Z,40.90
2019-02-05T04:19:28.852Z,42.03
2019-02-05T04:22:15.959Z,48.23
2019-02-05T04:25:20.930Z,51.07
2019-02-05T04:28:09.269Z,48.23
2019-02-05T04:31:08.751Z,45.17
2019-02-05T04:33:59.670Z,51.30
2019-02-05T04:36:57.480Z,56.97
2019-02-05T04:39:41.196Z,51.93
2019-02-05T04:43:04.018Z,56.77
2019-02-05T04:46:19.093Z,54.07
2019-02-05T04:49:03.433Z,51.90
2019-02-05T04:51:59.470Z,55.70
2019-02-05T04:54:53.954Z,52.40
2019-02-05T04:57:58.041Z,62.57
2019-02-05T05:00:56.654Z,52.90
2019-02-05T05:04:09.515Z,54.37
2019-02-05T05:07:31.513Z,59.63
2019-02-05T05:10:00.960Z,56.07
2019-02-05T05:12:30.739Z,50.77
2019-02-05T05:15:00.750Z,49.50
2019-02-05T05:17:30.141Z,50.77
2019-02-05T05:19:59.933Z,53.67
2019-02-05T05:22:29.387Z,49.10
2019-02-05T05:24:59.679Z,49.57
2019-02-05T05:27:29.624Z,51.03
2019-02-05T05:29:59.022Z,56.17
2019-02-05T05:32:28.680Z,51.17
2019-02-05T05:34:58.127Z,54.07
2019-02-05T05:37:27.501Z,64.27
2019-02-05T05:39:56.848Z,55.50
2019-02-05T05:42:27.383Z,62.07
2019-02-05T05:44:56.727Z,60.37
2019-02-05T05:47:26.152Z,61.47
2019-02-05T05:49:55.524Z,62.30
2019-02-05T05:52:24.926Z,61.97
2019-02-05T05:54:54.373Z,56.77
2019-02-05T05:57:23.815Z,63.63
2019-02-05T05:59:53.287Z,65.93
2019-02-05T06:02:22.720Z,66.07
2019-02-05T06:04:52.093Z,66.60
2019-02-05T06:07:21.525Z,67.43
2019-02-05T06:09:50.878Z,69.63
2019-02-05T06:12:20.236Z,76.73
2019-02-05T06:14:49.979Z,76.73
2019-02-05T06:17:19.413Z,66.70
2019-02-05T06:19:48.764Z,77.23
2019-02-05T06:22:18.428Z,66.47
2019-02-05T06:24:47.834Z,65.77
2019-02-05T06:27:17.313Z,63.00
2019-02-05T06:29:47.079Z,62.63
2019-02-05T06:32:16.427Z,56.20
2019-02-05T06:34:45.863Z,61.03
2019-02-05T06:37:15.236Z,64.60
2019-02-05T06:39:44.602Z,62.73
2019-02-05T06:42:13.960Z,66.30
2019-02-05T06:44:43.304Z,65.27
2019-02-05T06:47:12.745Z,72.10
2019-02-05T06:49:42.116Z,66.00
2019-02-05T06:52:11.575Z,64.83
2019-02-05T06:54:40.922Z,65.57
2019-02-05T06:57:10.428Z,64.40
2019-02-05T06:59:39.799Z,68.33
2019-02-05T07:02:09.682Z,63.77
2019-02-05T07:04:39.218Z,68.77
2019-02-05T07:07:08.664Z,63.47
2019-02-05T07:09:38.064Z,62.67
2019-02-05T07:12:07.539Z,65.33
2019-02-05T07:14:36.917Z,60.50
2019-02-05T07:17:06.617Z,61.87
2019-02-05T07:19:36.005Z,68.60
2019-02-05T07:22:05.646Z,58.93
2019-02-05T07:24:34.997Z,57.00
2019-02-05T07:27:04.536Z,63.63
2019-02-05T07:29:33.913Z,64.50
2019-02-05T07:32:03.257Z,58.07
2019-02-05T07:34:32.674Z,59.30
2019-02-05T07:37:02.038Z,66.47
2019-02-05T07:39:31.387Z,62.63
2019-02-05T07:42:00.758Z,68.23
2019-02-05T07:44:30.093Z,61.13
2019-02-05T07:46:59.454Z,61.97
2019-02-05T07:49:28.817Z,62.30
2019-02-05T07:51:58.605Z,65.73
2019-02-05T07:54:27.951Z,54.73
2019-02-05T07:56:57.340Z,65.47
2019-02-05T07:59:26.786Z,58.47
2019-02-05T08:01:56.159Z,61.43
2019-02-05T08:04:25.584Z,70.90
2019-02-05T08:06:55.049Z,65.87
2019-02-05T08:09:24.719Z,65.00
2019-02-05T08:11:54.099Z,61.93
2019-02-05T08:14:23.784Z,60.93
2019-02-05T08:16:53.237Z,53.20
2019-02-05T08:19:22.588Z,43.40
2019-02-05T08:21:52.027Z,38.00
2019-02-05T08:24:21.480Z,37.03
2019-02-05T08:26:51.420Z,33.20
2019-02-05T08:29:21.913Z,36.53
2019-02-05T08:31:51.412Z,39.30
2019-02-05T08:34:22.429Z,33.43
2019-02-05T08:36:51.845Z,37.33
2019-02-05T08:39:21.214Z,32.37
2019-02-05T08:41:50.638Z,34.23
2019-02-05T08:44:20.061Z,29.20
2019-02-05T08:46:49.581Z,28.73
2019-02-05T08:49:18.963Z,27.30
2019-02-05T08:51:48.435Z,36.30
2019-02-05T08:54:17.941Z,32.33
2019-02-05T08:56:47.371Z,34.93
2019-02-05T08:59:17.183Z,33.37
2019-02-05T09:01:46.551Z,30.97
2019-02-05T09:04:15.978Z,31.90
2019-02-05T09:06:45.405Z,33.60
2019-02-05T09:09:14.849Z,31.53
2019-02-05T09:11:44.291Z,32.20
2019-02-05T09:14:13.666Z,34.83
2019-02-05T09:16:43.308Z,36.33
2019-02-05T09:19:12.904Z,36.70
2019-02-05T09:21:42.500Z,40.03
2019-02-05T09:24:11.955Z,33.23
2019-02-05T09:26:41.398Z,34.17
2019-02-05T09:29:10.823Z,38.53
2019-02-05T09:31:40.647Z,38.60
2019-02-05T09:34:10.044Z,48.10
2019-02-05T09:36:39.418Z,44.50
2019-02-05T09:39:08.946Z,45.00
2019-02-05T09:41:38.373Z,41.30
2019-02-05T09:44:07.731Z,45.50
2019-02-05T09:46:37.201Z,37.60
2019-02-05T09:49:06.850Z,41.83
2019-02-05T09:51:36.358Z,39.90
2019-02-05T09:54:05.821Z,38.50
2019-02-05T09:56:35.168Z,41.20
2019-02-05T09:59:04.883Z,45.90
2019-02-05T10:01:34.406Z,46.93
2019-02-05T10:04:04.199Z,42.57
2019-02-05T10:06:33.635Z,39.67
2019-02-05T10:09:03.291Z,33.37
2019-02-05T10:11:32.645Z,35.20
2019-02-05T10:14:02.026Z,40.17
2019-02-05T10:16:31.430Z,39.33
2019-02-05T10:19:00.993Z,33.03
2019-02-05T10:21:30.676Z,34.60
2019-02-05T10:24:00.194Z,39.13
2019-02-05T10:26:29.669Z,37.47
2019-02-05T10:28:59.042Z,42.73
2019-02-05T10:31:28.484Z,41.77
2019-02-05T10:33:57.933Z,38.93
2019-02-05T10:36:27.661Z,42.20
2019-02-05T10:38:57.076Z,42.50
2019-02-05T10:41:26.517Z,46.97
2019-02-05T10:43:55.866Z,47.53
2019-02-05T10:46:25.292Z,44.43
2019-02-05T10:48:54.659Z,47.67
2019-02-05T10:51:24.157Z,46.40
2019-02-05T10:53:53.913Z,44.20
2019-02-05T10:56:23.374Z,44.73
2019-02-05T10:58:53.177Z,41.13
2019-02-05T11:01:22.563Z,46.03
2019-02-05T11:03:52.075Z,43.67
2019-02-05T11:06:21.444Z,42.03
2019-02-05T11:08:50.803Z,44.27
2019-02-05T11:11:20.177Z,45.67
2019-02-05T11:13:49.573Z,45.83
2019-02-05T11:16:18.933Z,42.90
2019-02-05T11:18:48.357Z,49.87
2019-02-05T11:21:17.709Z,42.20
2019-02-05T11:23:47.156Z,40.30
2019-02-05T11:26:17.328Z,43.03
2019-02-05T11:28:47.063Z,42.30
2019-02-05T11:31:16.816Z,35.07
2019-02-05T11:33:46.628Z,41.60
2019-02-05T11:36:16.476Z,41.57
2019-02-05T11:38:46.210Z,37.63
2019-02-05T11:41:15.713Z,39.43
2019-02-05T11:43:45.166Z,34.27
2019-02-05T11:46:14.700Z,36.13
2019-02-05T11:48:44.128Z,39.73
2019-02-05T11:51:13.755Z,38.57
2019-02-05T11:53:43.249Z,39.63
2019-02-05T11:56:12.756Z,36.00
2019-02-05T11:58:42.291Z,38.43
2019-02-05T12:01:16.170Z,44.17
2019-02-05T12:03:45.665Z,44.30
2019-02-05T12:06:15.102Z,41.17
2019-02-05T12:08:44.686Z,46.43
2019-02-05T12:11:14.122Z,47.00
2019-02-05T12:13:43.761Z,45.10
2019-02-05T12:16:13.298Z,49.27
2019-02-05T12:18:42.728Z,44.07
2019-02-05T12:21:12.310Z,43.60
2019-02-05T12:23:41.751Z,43.77
2019-02-05T12:26:11.252Z,41.87
2019-02-05T12:28:40.698Z,41.17
2019-02-05T12:31:10.301Z,37.87
2019-02-05T12:33:39.653Z,39.10
2019-02-05T12:36:09.109Z,40.40
2019-02-05T12:38:38.550Z,40.23
2019-02-05T12:41:07.914Z,41.60
2019-02-05T12:43:37.295Z,42.00
2019-02-05T12:46:07.029Z,41.67
2019-02-05T12:48:36.426Z,41.53
2019-02-05T12:51:06.342Z,39.63
2019-02-05T12:53:35.709Z,41.63
2019-02-05T12:56:05.431Z,46.10
2019-02-05T12:58:34.859Z,44.27
2019-02-05T13:01:04.285Z,43.27
2019-02-05T13:03:33.667Z,40.03
2019-02-05T13:06:03.087Z,45.23
2019-02-05T13:08:32.530Z,36.97
2019-02-05T13:11:01.893Z,39.97
2019-02-05T13:13:31.446Z,37.97
2019-02-05T13:16:00.958Z,40.77
2019-02-05T13:18:30.421Z,44.00
2019-02-05T13:20:59.897Z,41.83
2019-02-05T13:23:29.237Z,40.63
2019-02-05T13:25:58.764Z,39.73
2019-02-05T13:28:28.146Z,47.83
2019-02-05T13:31:07.650Z,48.23
2019-02-05T13:33:30.640Z,47.23
2019-02-05T13:36:00.004Z,46.00
2019-02-05T13:38:29.441Z,46.53
2019-02-05T13:40:58.903Z,44.83
2019-02-05T13:43:28.401Z,45.27
2019-02-05T13:45:57.919Z,45.10
2019-02-05T13:48:27.271Z,44.37
2019-02-05T13:50:56.695Z,40.97
2019-02-05T13:53:26.059Z,48.67
2019-02-05T13:55:55.563Z,43.50
2019-02-05T13:58:24.910Z,42.60
2019-02-05T14:00:55.384Z,48.50
2019-02-05T14:03:24.806Z,48.10
2019-02-05T14:05:54.189Z,44.87
2019-02-05T14:08:23.624Z,43.30
2019-02-05T14:10:53.390Z,43.43
2019-02-05T14:13:22.748Z,42.97
2019-02-05T14:15:53.229Z,43.03
2019-02-05T14:18:23.241Z,48.47
2019-02-05T14:20:52.759Z,46.17
2019-02-05T14:23:22.201Z,46.90
2019-02-05T14:25:51.549Z,46.67
2019-02-05T14:28:20.905Z,42.40
2019-02-05T14:30:57.538Z,44.87
2019-02-05T14:33:28.813Z,46.27
2019-02-05T14:35:58.249Z,50.50
2019-02-05T14:38:27.742Z,47.17
2019-02-05T14:40:57.181Z,43.77
2019-02-05T14:43:26.824Z,41.17
2019-02-05T14:45:56.283Z,44.73
2019-02-05T14:48:25.829Z,49.17
2019-02-05T14:50:55.259Z,47.23
2019-02-05T14:53:24.616Z,47.37
2019-02-05T14:55:54.062Z,50.80
2019-02-05T14:58:23.695Z,50.27
2019-02-05T15:00:53.119Z,50.30
2019-02-05T15:03:22.482Z,45.50
2019-02-05T15:05:51.853Z,49.43
2019-02-05T15:08:21.627Z,46.13
2019-02-05T15:10:51.019Z,48.70
2019-02-05T15:13:20.533Z,49.97
2019-02-05T15:15:50.006Z,51.97
2019-02-05T15:18:23.081Z,54.67
2019-02-05T15:20:52.512Z,51.20
2019-02-05T15:23:22.298Z,51.23
2019-02-05T15:25:52.033Z,49.20
2019-02-05T15:28:21.477Z,47.20
2019-02-05T15:30:51.633Z,54.23
2019-02-05T15:33:38.825Z,52.30
2019-02-05T15:36:15.168Z,50.77
2019-02-05T15:38:44.601Z,47.90
2019-02-05T15:41:13.991Z,52.70
2019-02-05T15:43:43.481Z,50.53
2019-02-05T15:46:12.897Z,48.60
2019-02-05T15:48:42.242Z,45.67
2019-02-05T15:51:12.002Z,48.13
2019-02-05T15:53:41.428Z,45.60
2019-02-05T15:56:10.796Z,54.13
2019-02-05T15:58:40.230Z,52.13
2019-02-05T16:01:09.700Z,54.10
2019-02-05T16:03:39.057Z,51.63
2019-02-05T16:06:08.491Z,50.57
2019-02-05T16:08:37.898Z,52.10
2019-02-05T16:11:07.327Z,47.37
2019-02-05T16:13:36.688Z,54.47
2019-02-05T16:16:06.461Z,51.10
2019-02-05T16:18:35.814Z,49.60
2019-02-05T16:21:05.266Z,55.77
2019-02-05T16:23:34.621Z,53.70
2019-02-05T16:26:04.213Z,54.00
2019-02-05T16:28:33.582Z,52.37
2019-02-05T16:31:03.023Z,52.03
2019-02-05T16:33:32.449Z,46.70
2019-02-05T16:36:01.869Z,49.23
2019-02-05T16:38:31.313Z,45.60
2019-02-05T16:41:00.686Z,49.23
2019-02-05T16:43:30.137Z,51.93
2019-02-05T16:45:59.489Z,50.93
2019-02-05T16:48:28.917Z,51.97
2019-02-05T16:50:58.435Z,50.10
2019-02-05T16:53:27.863Z,51.63
2019-02-05T16:55:57.211Z,51.30
2019-02-05T16:58:26.605Z,53.77
2019-02-05T17:00:56.192Z,50.13
2019-02-05T17:03:25.603Z,51.07
2019-02-05T17:05:55.222Z,53.00
2019-02-05T17:08:24.602Z,53.20
2019-02-05T17:10:53.956Z,56.83
2019-02-05T17:13:23.505Z,48.03
2019-02-05T17:15:52.924Z,51.53
2019-02-05T17:18:24.042Z,51.97
2019-02-05T17:20:53.733Z,82.87
2019-02-05T17:23:23.291Z,56.13
2019-02-05T17:25:52.607Z,51.70
2019-02-05T17:28:21.976Z,49.87
2019-02-05T17:30:51.336Z,49.80
2019-02-05T17:33:20.813Z,45.47
2019-02-05T17:35:50.221Z,47.93
2019-02-05T17:38:19.717Z,50.87
2019-02-05T17:40:49.091Z,47.07
2019-02-05T17:43:18.506Z,46.90
2019-02-05T17:45:48.085Z,53.97
2019-02-05T17:48:18.331Z,50.67
2019-02-05T17:50:47.736Z,48.87
2019-02-05T17:53:17.125Z,51.53
2019-02-05T17:55:46.559Z,49.77
2019-02-05T17:58:16.291Z,53.20
2019-02-05T18:00:50.748Z,50.60
2019-02-05T18:03:20.556Z,52.37
2019-02-05T18:05:50.265Z,52.07
2019-02-05T18:08:19.612Z,54.33
2019-02-05T18:10:49.100Z,54.57
2019-02-05T18:13:18.515Z,57.70
2019-02-05T18:15:47.965Z,58.47
2019-02-05T18:18:17.772Z,58.53
2019-02-05T18:20:47.591Z,56.83
2019-02-05T18:23:17.024Z,55.23
2019-02-05T18:25:46.524Z,58.10
2019-02-05T18:28:15.871Z,56.27
2019-02-05T18:30:45.308Z,54.60
2019-02-05T18:33:15.007Z,58.93
2019-02-05T18:35:44.434Z,53.80
2019-02-05T18:38:15.082Z,55.47
2019-02-05T18:40:44.474Z,56.17
2019-02-05T18:43:13.892Z,53.63
2019-02-05T18:45:43.318Z,56.23
2019-02-05T18:48:12.909Z,58.57
2019-02-05T18:50:42.402Z,70.40
2019-02-05T18:53:12.083Z,59.70
2019-02-05T18:55:41.685Z,60.33
2019-02-05T18:58:11.135Z,56.03
2019-02-05T19:00:41.978Z,57.00
2019-02-05T19:03:15.669Z,58.50
2019-02-05T19:05:42.788Z,57.23
2019-02-05T19:08:12.338Z,62.03
2019-02-05T19:10:41.788Z,55.40
2019-02-05T19:13:11.204Z,61.60
2019-02-05T19:15:40.668Z,56.73
2019-02-05T19:18:10.233Z,60.20
2019-02-05T19:20:39.646Z,62.47
2019-02-05T19:23:09.749Z,62.20
2019-02-05T19:26:04.491Z,57.83
2019-02-05T19:28:36.211Z,51.47
2019-02-05T19:31:25.030Z,59.03
2019-02-05T19:33:54.444Z,55.00
2019-02-05T19:36:23.806Z,54.27
2019-02-05T19:38:53.235Z,58.70
2019-02-05T19:41:22.884Z,53.17
2019-02-05T19:43:52.293Z,53.20
2019-02-05T19:46:39.572Z,51.73
2019-02-05T19:49:34.059Z,55.50
2019-02-05T19:52:03.481Z,58.33
2019-02-05T19:54:32.820Z,63.30
2019-02-05T19:57:02.253Z,56.67
2019-02-05T19:59:31.605Z,60.50
2019-02-05T20:02:01.294Z,49.17
2019-02-05T20:04:30.686Z,48.73
2019-02-05T20:07:00.119Z,53.07
2019-02-05T20:09:29.554Z,50.57
2019-02-05T20:11:58.918Z,54.60
2019-02-05T20:14:28.259Z,53.97
2019-02-05T20:16:57.712Z,60.60
2019-02-05T20:19:27.176Z,55.43
2019-02-05T20:21:56.558Z,54.30
2019-02-05T20:24:25.984Z,56.30
2019-02-05T20:26:55.334Z,62.73
2019-02-05T20:29:24.723Z,53.63
2019-02-05T20:31:54.069Z,57.30
2019-02-05T20:34:23.724Z,54.47
2019-02-05T20:36:53.171Z,59.67
2019-02-05T20:39:22.557Z,67.60
2019-02-05T20:41:52.714Z,67.90
2019-02-05T20:44:22.193Z,72.90
2019-02-05T20:46:51.566Z,73.67
2019-02-05T20:49:20.982Z,64.57
2019-02-05T20:51:50.594Z,60.67
2019-02-05T20:54:20.011Z,64.30
2019-02-05T20:56:49.355Z,57.30
2019-02-05T20:59:18.830Z,58.83
2019-02-05T21:01:48.172Z,57.03
2019-02-05T21:04:17.614Z,67.63
2019-02-05T21:06:47.423Z,59.27
2019-02-05T21:09:21.118Z,60.30
2019-02-05T21:11:50.551Z,56.00
2019-02-05T21:14:19.990Z,53.03
2019-02-05T21:16:49.407Z,49.63
2019-02-05T21:19:18.868Z,52.40
2019-02-05T21:21:48.709Z,50.30
2019-02-05T21:24:18.150Z,58.57
2019-02-05T21:26:47.593Z,61.53
2019-02-05T21:29:17.023Z,81.33
2019-02-05T21:31:46.506Z,61.00
2019-02-05T21:34:16.355Z,50.70
2019-02-05T21:36:45.776Z,53.77
2019-02-05T21:39:15.341Z,55.47
2019-02-05T21:41:44.792Z,51.93
2019-02-05T21:44:14.226Z,60.30
2019-02-05T21:46:43.700Z,54.27
2019-02-05T21:49:13.327Z,53.43
2019-02-05T21:51:42.890Z,70.67
2019-02-05T21:54:13.170Z,64.07
2019-02-05T21:56:42.555Z,60.43
2019-02-05T21:59:11.937Z,57.33
2019-02-05T22:01:41.343Z,50.13
2019-02-05T22:04:10.759Z,57.80
2019-02-05T22:06:40.153Z,65.70
2019-02-05T22:09:12.041Z,56.23
2019-02-05T22:11:41.496Z,51.83
2019-02-05T22:14:10.962Z,51.27
2019-02-05T22:16:40.380Z,53.47
2019-02-05T22:19:10.176Z,51.63
2019-02-05T22:21:39.603Z,54.90
2019-02-05T22:24:09.034Z,58.20
2019-02-05T22:26:38.525Z,59.97
2019-02-05T22:29:08.272Z,57.77
2019-02-05T22:31:38.036Z,69.30
2019-02-05T22:34:07.795Z,66.67
2019-02-05T22:36:37.201Z,66.10
2019-02-05T22:39:08.706Z,55.97
2019-02-05T22:41:38.088Z,49.93
2019-02-05T22:44:07.505Z,69.80
2019-02-05T22:46:36.857Z,50.37
2019-02-05T22:49:06.392Z,56.30
2019-02-05T22:51:35.810Z,57.30
2019-02-05T22:54:05.339Z,56.20
2019-02-05T22:56:34.764Z,62.57
2019-02-05T22:59:04.878Z,54.70
2019-02-05T23:01:50.038Z,58.00
2019-02-05T23:04:50.370Z,63.40
2019-02-05T23:07:15.514Z,68.43
2019-02-05T23:10:26.999Z,60.77
2019-02-05T23:12:59.774Z,63.17
2019-02-05T23:15:29.412Z,68.73
2019-02-05T23:17:58.902Z,57.97
2019-02-05T23:20:28.615Z,52.87
2019-02-05T23:22:58.132Z,57.57
2019-02-05T23:25:27.456Z,72.67
2019-02-05T23:27:56.906Z,54.67
2019-02-05T23:30:27.847Z,69.03
2019-02-05T23:32:57.434Z,77.50
2019-02-05T23:35:27.234Z,67.73
2019-02-05T23:37:56.591Z,64.93
2019-02-05T23:40:25.962Z,77.37
2019-02-05T23:42:55.467Z,115.43
2019-02-05T23:45:24.888Z,79.23
2019-02-05T23:47:54.245Z,78.43
2019-02-05T23:50:23.871Z,61.73
2019-02-05T23:52:53.308Z,97.10
2019-02-05T23:55:22.643Z,88.17
2019-02-05T23:57:52.012Z,59.50
